createdAt,value
2022-10-11T00:00:21.875Z,14.03
2022-10-11T00:02:49.857Z,14.05
2022-10-11T00:05:18.213Z,13.78
2022-10-11T00:07:46.297Z,13.75
2022-10-11T00:10:14.247Z,13.53
2022-10-11T00:12:42.541Z,13.17
2022-10-11T00:15:14.917Z,13.57
2022-10-11T00:17:42.947Z,13.20
2022-10-11T00:20:13.083Z,13.10
2022-10-11T00:22:42.613Z,13.12
2022-10-11T00:25:12.480Z,12.75
2022-10-11T00:27:41.105Z,12.81
2022-10-11T00:30:12.648Z,12.67
2022-10-11T00:32:41.099Z,12.75
2022-10-11T00:35:09.662Z,13.33
2022-10-11T00:37:39.673Z,13.40
2022-10-11T00:40:10.823Z,13.82
2022-10-11T00:42:38.887Z,13.49
2022-10-11T00:45:44.305Z,13.06
2022-10-11T00:48:22.915Z,13.00
2022-10-11T00:50:51.139Z,12.95
2022-10-11T00:53:19.150Z,12.71
2022-10-11T00:55:52.869Z,12.48
2022-10-11T00:58:23.561Z,12.82
2022-10-11T01:00:52.135Z,12.63
2022-10-11T01:03:25.594Z,12.75
2022-10-11T01:05:53.973Z,12.93
2022-10-11T01:08:23.292Z,13.23
2022-10-11T01:10:51.996Z,13.46
2022-10-11T01:13:29.951Z,13.41
2022-10-11T01:16:06.125Z,12.86
2022-10-11T01:18:44.246Z,12.74
2022-10-11T01:21:21.828Z,12.42
2022-10-11T01:24:29.249Z,12.31
2022-10-11T01:27:18.432Z,12.71
2022-10-11T01:29:57.215Z,12.94
2022-10-11T01:32:31.984Z,12.91
2022-10-11T01:35:07.538Z,12.75
2022-10-11T01:37:38.759Z,13.12
2022-10-11T01:40:10.739Z,13.39
2022-10-11T01:42:41.425Z,13.49
2022-10-11T01:45:11.861Z,13.46
2022-10-11T01:47:42.569Z,13.20
2022-10-11T01:50:34.485Z,12.61
2022-10-11T01:53:11.755Z,12.69
2022-10-11T01:55:50.017Z,12.51
2022-10-11T01:58:34.675Z,12.44
2022-10-11T02:01:15.192Z,12.42
2022-10-11T02:03:48.898Z,12.19
2022-10-11T02:06:25.006Z,12.60
2022-10-11T02:09:00.731Z,12.06
2022-10-11T02:11:32.462Z,12.19
2022-10-11T02:14:05.802Z,11.37
2022-10-11T02:16:40.638Z,11.40
2022-10-11T02:19:12.061Z,11.66
2022-10-11T02:21:43.568Z,12.24
2022-10-11T02:24:17.924Z,11.97
2022-10-11T02:26:52.855Z,11.82
2022-10-11T02:29:23.133Z,11.72
2022-10-11T02:31:52.320Z,11.98
2022-10-11T02:34:25.888Z,11.34
2022-10-11T02:37:03.999Z,11.71
2022-10-11T02:39:41.681Z,12.11
2022-10-11T02:42:15.937Z,11.77
2022-10-11T02:44:47.144Z,11.37
2022-10-11T02:47:15.788Z,11.43
2022-10-11T02:49:45.238Z,11.40
2022-10-11T02:52:13.225Z,11.07
2022-10-11T02:54:41.227Z,10.90
2022-10-11T02:57:09.276Z,10.60
2022-10-11T02:59:37.235Z,10.95
2022-10-11T03:02:05.342Z,10.82
2022-10-11T03:04:33.387Z,10.98
2022-10-11T03:07:02.795Z,11.06
2022-10-11T03:09:30.827Z,11.10
2022-10-11T03:11:58.877Z,11.37
2022-10-11T03:14:26.974Z,11.54
2022-10-11T03:16:54.974Z,11.72
2022-10-11T03:19:22.944Z,11.70
2022-10-11T03:21:50.918Z,11.66
2022-10-11T03:24:20.242Z,11.64
2022-10-11T03:26:48.346Z,11.67
2022-10-11T03:29:16.330Z,11.60
2022-10-11T03:31:44.416Z,11.77
2022-10-11T03:34:12.360Z,11.69
2022-10-11T03:36:40.450Z,11.58
2022-10-11T03:39:08.914Z,11.79
2022-10-11T03:41:38.382Z,11.81
2022-10-11T03:44:06.389Z,12.28
2022-10-11T03:46:34.388Z,12.12
2022-10-11T03:49:02.555Z,12.28
2022-10-11T03:51:31.349Z,12.05
2022-10-11T03:53:59.504Z,12.27
2022-10-11T03:56:27.590Z,11.98
2022-10-11T03:58:56.949Z,12.06
2022-10-11T04:01:25.001Z,12.15
2022-10-11T04:03:56.564Z,12.18
2022-10-11T04:06:24.734Z,12.36
2022-10-11T04:08:52.725Z,12.05
2022-10-11T04:11:20.778Z,11.93
2022-10-11T04:13:48.785Z,11.98
2022-10-11T04:16:18.167Z,11.89
2022-10-11T04:18:46.180Z,11.89
2022-10-11T04:21:14.263Z,11.84
2022-10-11T04:23:42.344Z,11.50
2022-10-11T04:26:10.390Z,11.69
2022-10-11T04:28:38.443Z,11.78
2022-10-11T04:31:08.032Z,11.51
2022-10-11T04:33:37.433Z,11.35
2022-10-11T04:36:06.500Z,11.18
2022-10-11T04:38:34.921Z,11.37
2022-10-11T04:41:10.479Z,11.33
2022-10-11T04:43:39.324Z,11.48
2022-10-11T04:46:08.482Z,11.65
2022-10-11T04:48:38.175Z,11.68
2022-10-11T04:51:06.485Z,12.04
2022-10-11T04:53:34.485Z,11.85
2022-10-11T04:56:05.079Z,11.69
2022-10-11T04:58:35.401Z,12.18
2022-10-11T05:01:03.453Z,11.94
2022-10-11T05:03:31.701Z,11.60
2022-10-11T05:06:05.358Z,11.64
2022-10-11T05:08:34.217Z,11.79
2022-10-11T05:11:05.042Z,12.07
2022-10-11T05:13:34.050Z,12.15
2022-10-11T05:16:05.778Z,11.96
2022-10-11T05:18:36.731Z,11.67
2022-10-11T05:21:09.061Z,11.79
2022-10-11T05:23:38.197Z,11.83
2022-10-11T05:26:06.776Z,12.16
2022-10-11T05:28:35.130Z,12.06
2022-10-11T05:31:03.124Z,12.08
2022-10-11T05:33:31.214Z,12.16
2022-10-11T05:35:59.155Z,12.51
2022-10-11T05:38:28.778Z,12.24
2022-10-11T05:41:00.341Z,12.38
2022-10-11T05:43:28.419Z,12.32
2022-10-11T05:45:56.561Z,12.46
2022-10-11T05:48:26.735Z,12.28
2022-10-11T05:50:59.402Z,12.63
2022-10-11T05:53:28.911Z,12.53
2022-10-11T05:55:57.307Z,12.44
2022-10-11T05:58:25.378Z,12.45
2022-10-11T06:00:53.528Z,12.29
2022-10-11T06:03:21.551Z,12.32
2022-10-11T06:05:54.454Z,12.61
2022-10-11T06:08:24.617Z,12.54
2022-10-11T06:10:54.090Z,12.52
2022-10-11T06:13:22.154Z,12.60
2022-10-11T06:15:50.163Z,12.64
2022-10-11T06:18:18.200Z,12.78
2022-10-11T06:20:46.186Z,12.90
2022-10-11T06:23:14.276Z,12.66
2022-10-11T06:25:42.359Z,12.77
2022-10-11T06:28:11.687Z,12.80
2022-10-11T06:30:40.017Z,13.10
2022-10-11T06:33:08.022Z,12.77
2022-10-11T06:35:36.092Z,12.96
2022-10-11T06:38:04.066Z,13.47
2022-10-11T06:40:32.128Z,13.59
2022-10-11T06:43:00.115Z,13.77
2022-10-11T06:45:29.461Z,14.03
2022-10-11T06:47:57.528Z,14.69
2022-10-11T06:50:47.052Z,14.23
2022-10-11T06:53:13.579Z,13.32
2022-10-11T06:55:41.620Z,13.69
2022-10-11T06:58:09.636Z,14.06
2022-10-11T07:00:39.199Z,14.59
2022-10-11T07:03:08.471Z,13.97
2022-10-11T07:05:36.710Z,13.87
2022-10-11T07:08:04.894Z,13.81
2022-10-11T07:10:32.868Z,13.87
2022-10-11T07:13:00.888Z,13.83
2022-10-11T07:15:28.845Z,14.03
2022-10-11T07:17:58.248Z,13.08
2022-10-11T07:20:26.217Z,13.27
2022-10-11T07:22:54.260Z,13.73
2022-10-11T07:25:22.315Z,13.37
2022-10-11T07:27:50.334Z,13.02
2022-10-11T07:30:18.610Z,13.27
2022-10-11T07:32:46.615Z,13.43
2022-10-11T07:35:16.007Z,12.97
2022-10-11T07:37:44.183Z,12.97
2022-10-11T07:40:12.311Z,12.76
2022-10-11T07:42:40.410Z,12.75
2022-10-11T07:45:09.188Z,13.68
2022-10-11T07:47:37.155Z,13.82
2022-10-11T07:50:05.658Z,13.08
2022-10-11T07:52:36.357Z,13.45
2022-10-11T07:55:04.571Z,12.43
2022-10-11T07:57:32.622Z,13.68
2022-10-11T08:00:00.664Z,14.22
2022-10-11T08:02:28.746Z,14.01
2022-10-11T08:04:56.789Z,13.81
2022-10-11T08:07:24.798Z,14.33
2022-10-11T08:10:00.196Z,14.04
2022-10-11T08:12:28.360Z,14.53
2022-10-11T08:14:56.865Z,14.49
2022-10-11T08:17:25.154Z,14.13
2022-10-11T08:19:53.268Z,14.08
2022-10-11T08:22:21.253Z,13.89
2022-10-11T08:24:50.800Z,14.24
2022-10-11T08:27:20.461Z,14.50
2022-10-11T08:29:48.427Z,14.67
2022-10-11T08:32:16.487Z,14.45
2022-10-11T08:34:44.501Z,14.77
2022-10-11T08:37:12.531Z,15.22
2022-10-11T08:39:40.784Z,15.11
2022-10-11T08:42:16.638Z,15.36
2022-10-11T08:45:11.479Z,15.60
2022-10-11T08:47:43.985Z,15.30
2022-10-11T08:50:18.998Z,15.03
2022-10-11T08:52:51.616Z,15.04
2022-10-11T08:55:25.580Z,14.83
2022-10-11T08:57:56.243Z,13.93
2022-10-11T09:00:27.174Z,13.55
2022-10-11T09:03:09.573Z,13.85
2022-10-11T09:05:50.808Z,13.73
2022-10-11T09:08:23.759Z,14.33
2022-10-11T09:11:00.318Z,14.12
2022-10-11T09:13:44.432Z,14.54
2022-10-11T09:16:28.089Z,14.92
2022-10-11T09:19:24.610Z,14.84
2022-10-11T09:22:01.061Z,15.17
2022-10-11T09:24:40.391Z,15.12
2022-10-11T09:27:18.863Z,15.18
2022-10-11T09:29:58.687Z,15.70
2022-10-11T09:32:32.152Z,15.35
2022-10-11T09:35:09.697Z,14.96
2022-10-11T09:37:47.193Z,14.79
2022-10-11T09:40:26.352Z,15.20
2022-10-11T09:42:54.505Z,15.41
2022-10-11T09:45:23.297Z,15.64
2022-10-11T09:47:55.509Z,15.42
2022-10-11T09:50:26.161Z,15.75
2022-10-11T09:52:56.591Z,15.45
2022-10-11T09:55:35.767Z,15.77
2022-10-11T09:58:05.171Z,16.39
2022-10-11T10:00:34.428Z,16.61
2022-10-11T10:03:05.558Z,16.90
2022-10-11T10:05:36.914Z,16.24
2022-10-11T10:08:23.847Z,17.15
2022-10-11T10:11:01.328Z,17.14
2022-10-11T10:13:39.239Z,16.73
2022-10-11T10:16:11.707Z,17.21
2022-10-11T10:18:50.421Z,17.39
2022-10-11T10:21:27.617Z,17.05
2022-10-11T10:23:57.875Z,17.80
2022-10-11T10:26:27.583Z,17.57
2022-10-11T10:28:59.072Z,17.60
2022-10-11T10:31:49.185Z,18.35
2022-10-11T10:34:27.218Z,17.67
2022-10-11T10:36:58.373Z,17.03
2022-10-11T10:39:32.766Z,17.82
2022-10-11T10:42:04.730Z,18.33
2022-10-11T10:44:32.774Z,18.55
2022-10-11T10:47:10.371Z,18.69
2022-10-11T10:49:59.836Z,19.05
2022-10-11T10:52:47.241Z,18.96
2022-10-11T10:55:24.604Z,19.06
2022-10-11T10:58:07.203Z,17.99
2022-10-11T11:00:43.328Z,18.24
2022-10-11T11:03:22.721Z,17.99
2022-10-11T11:06:00.954Z,17.66
2022-10-11T11:08:45.418Z,17.96
2022-10-11T11:11:29.630Z,18.12
2022-10-11T11:14:04.997Z,18.37
2022-10-11T11:16:39.977Z,18.61
2022-10-11T11:19:20.731Z,18.04
2022-10-11T11:21:58.421Z,18.81
2022-10-11T11:24:38.824Z,17.81
2022-10-11T11:27:16.232Z,17.05
2022-10-11T11:29:55.365Z,17.89
2022-10-11T11:32:35.838Z,17.77
2022-10-11T11:35:10.640Z,17.05
2022-10-11T11:37:43.804Z,18.18
2022-10-11T11:40:18.954Z,17.12
2022-10-11T11:42:50.400Z,17.64
2022-10-11T11:45:23.260Z,18.22
2022-10-11T11:47:55.288Z,18.47
2022-10-11T11:50:27.861Z,17.46
2022-10-11T11:53:02.096Z,17.85
2022-10-11T11:55:37.535Z,17.39
2022-10-11T11:58:18.496Z,17.46
2022-10-11T12:00:54.293Z,17.90
2022-10-11T12:03:26.746Z,17.86
2022-10-11T12:06:24.949Z,18.31
2022-10-11T12:09:04.130Z,16.75
2022-10-11T12:11:42.710Z,17.33
2022-10-11T12:14:35.409Z,18.08
2022-10-11T12:17:10.422Z,18.38
2022-10-11T12:19:42.070Z,17.38
2022-10-11T12:22:42.761Z,17.18
2022-10-11T12:25:36.063Z,16.73
2022-10-11T12:28:42.502Z,16.97
2022-10-11T12:31:22.755Z,17.53
2022-10-11T12:33:54.486Z,17.43
2022-10-11T12:36:40.069Z,17.25
2022-10-11T12:39:47.451Z,17.44
2022-10-11T12:42:27.116Z,16.87
2022-10-11T12:45:32.048Z,17.15
2022-10-11T12:48:33.129Z,17.06
2022-10-11T12:51:22.500Z,16.89
2022-10-11T12:54:25.386Z,17.04
2022-10-11T12:57:13.256Z,17.41
2022-10-11T12:59:46.398Z,17.00
2022-10-11T13:02:29.075Z,17.16
2022-10-11T13:05:09.740Z,17.20
2022-10-11T13:07:37.871Z,17.28
2022-10-11T13:10:06.885Z,17.25
2022-10-11T13:12:42.005Z,16.86
2022-10-11T13:15:16.234Z,15.92
2022-10-11T13:17:44.273Z,16.06
2022-10-11T13:20:20.056Z,16.27
2022-10-11T13:22:51.127Z,16.18
2022-10-11T13:25:21.977Z,16.94
2022-10-11T13:27:52.455Z,16.85
2022-10-11T13:30:27.100Z,17.45
2022-10-11T13:32:55.453Z,15.91
2022-10-11T13:35:30.568Z,16.04
2022-10-11T13:37:59.114Z,15.99
2022-10-11T13:40:28.586Z,16.69
2022-10-11T13:42:56.974Z,16.47
2022-10-11T13:45:30.704Z,16.43
2022-10-11T13:47:58.980Z,16.26
2022-10-11T13:50:32.359Z,16.61
2022-10-11T13:53:01.959Z,17.57
2022-10-11T13:55:33.677Z,17.31
2022-10-11T13:58:03.997Z,17.64
2022-10-11T14:00:36.090Z,17.41
2022-10-11T14:03:09.230Z,16.33
2022-10-11T14:05:40.080Z,15.45
2022-10-11T14:08:20.386Z,16.01
2022-10-11T14:10:54.166Z,15.51
2022-10-11T14:13:26.828Z,15.74
2022-10-11T14:16:08.465Z,16.76
2022-10-11T14:18:48.403Z,16.60
2022-10-11T14:21:35.690Z,16.66
2022-10-11T14:24:06.245Z,17.44
2022-10-11T14:26:37.371Z,17.66
2022-10-11T14:29:09.383Z,18.51
2022-10-11T14:31:41.993Z,17.35
2022-10-11T14:34:18.318Z,18.35
2022-10-11T14:36:46.708Z,18.45
2022-10-11T14:39:17.540Z,18.52
2022-10-11T14:41:47.192Z,18.01
2022-10-11T14:44:16.793Z,17.69
2022-10-11T14:46:47.784Z,18.60
2022-10-11T14:49:17.711Z,18.29
2022-10-11T14:51:47.710Z,16.97
2022-10-11T14:54:17.836Z,17.00
2022-10-11T14:56:45.958Z,16.91
2022-10-11T14:59:16.086Z,17.30
2022-10-11T15:01:46.236Z,17.64
2022-10-11T15:04:16.137Z,17.26
2022-10-11T15:06:44.114Z,17.68
2022-10-11T15:09:12.114Z,17.56
2022-10-11T15:11:40.707Z,16.93
2022-10-11T15:14:08.664Z,17.01
2022-10-11T15:16:36.630Z,17.21
2022-10-11T15:19:04.881Z,17.17
2022-10-11T15:21:35.412Z,16.48
2022-10-11T15:24:03.492Z,16.93
2022-10-11T15:26:31.449Z,17.12
2022-10-11T15:28:59.496Z,17.27
2022-10-11T15:31:27.586Z,17.49
2022-10-11T15:33:59.431Z,17.05
2022-10-11T15:36:28.736Z,17.39
2022-10-11T15:38:58.108Z,16.68
2022-10-11T15:41:26.084Z,16.60
2022-10-11T15:43:54.979Z,16.02
2022-10-11T15:46:23.872Z,16.04
2022-10-11T15:48:53.188Z,16.29
2022-10-11T15:51:21.144Z,16.19
2022-10-11T15:53:49.160Z,15.76
2022-10-11T15:56:19.784Z,15.76
2022-10-11T15:58:48.110Z,15.99
2022-10-11T16:01:17.915Z,16.16
2022-10-11T16:03:46.457Z,15.81
2022-10-11T16:06:14.555Z,15.76
2022-10-11T16:08:42.539Z,15.95
2022-10-11T16:11:12.310Z,15.41
2022-10-11T16:13:42.160Z,15.70
2022-10-11T16:16:11.141Z,15.16
2022-10-11T16:18:39.773Z,15.62
2022-10-11T16:21:10.208Z,15.26
2022-10-11T16:23:39.266Z,14.96
2022-10-11T16:26:09.845Z,15.30
2022-10-11T16:28:38.527Z,14.55
2022-10-11T16:31:14.464Z,14.64
2022-10-11T16:33:46.538Z,14.75
2022-10-11T16:36:36.959Z,14.62
2022-10-11T16:39:08.710Z,14.77
2022-10-11T16:41:38.173Z,14.76
2022-10-11T16:44:06.798Z,13.97
2022-10-11T16:46:36.213Z,14.73
2022-10-11T16:49:04.820Z,14.52
2022-10-11T16:51:32.860Z,14.31
2022-10-11T16:54:00.978Z,14.06
2022-10-11T16:56:29.040Z,14.00
2022-10-11T16:58:57.461Z,14.29
2022-10-11T17:01:25.830Z,14.73
2022-10-11T17:03:55.841Z,14.72
2022-10-11T17:06:24.891Z,15.15
2022-10-11T17:08:53.367Z,15.16
2022-10-11T17:11:22.292Z,15.34
2022-10-11T17:13:53.476Z,15.57
2022-10-11T17:16:22.575Z,15.66
2022-10-11T17:18:51.033Z,15.66
2022-10-11T17:21:22.140Z,15.70
2022-10-11T17:23:50.416Z,15.70
2022-10-11T17:26:21.539Z,15.32
2022-10-11T17:28:50.178Z,15.36
2022-10-11T17:31:18.463Z,15.45
2022-10-11T17:33:46.781Z,15.41
2022-10-11T17:36:18.130Z,15.20
2022-10-11T17:38:47.726Z,15.00
2022-10-11T17:41:16.321Z,15.20
2022-10-11T17:43:44.305Z,15.38
2022-10-11T17:46:13.791Z,15.31
2022-10-11T17:48:42.653Z,14.77
2022-10-11T17:51:12.790Z,14.00
2022-10-11T17:53:41.303Z,13.87
2022-10-11T17:56:14.109Z,14.38
2022-10-11T17:58:42.675Z,14.27
2022-10-11T18:01:14.050Z,14.46
2022-10-11T18:03:42.899Z,14.46
2022-10-11T18:06:14.643Z,14.27
2022-10-11T18:08:42.988Z,14.20
2022-10-11T18:11:13.631Z,14.67
2022-10-11T18:13:46.011Z,14.89
2022-10-11T18:16:15.207Z,14.70
2022-10-11T18:18:44.538Z,14.78
2022-10-11T18:21:13.461Z,14.93
2022-10-11T18:23:41.813Z,14.90
2022-10-11T18:26:13.417Z,14.81
2022-10-11T18:28:42.649Z,14.47
2022-10-11T18:31:13.941Z,14.37
2022-10-11T18:33:42.872Z,14.39
2022-10-11T18:36:13.575Z,14.47
2022-10-11T18:38:46.419Z,14.19
2022-10-11T18:41:18.247Z,14.47
2022-10-11T18:43:50.171Z,14.53
2022-10-11T18:46:18.696Z,14.59
2022-10-11T18:48:48.341Z,14.35
2022-10-11T18:51:18.728Z,14.36
2022-10-11T18:53:46.990Z,14.34
2022-10-11T18:56:18.091Z,14.26
2022-10-11T18:58:46.634Z,14.19
2022-10-11T19:01:17.025Z,14.02
2022-10-11T19:03:47.047Z,13.77
2022-10-11T19:06:18.244Z,13.76
2022-10-11T19:08:47.194Z,13.61
2022-10-11T19:11:17.680Z,13.48
2022-10-11T19:13:45.809Z,13.49
2022-10-11T19:16:15.898Z,13.49
2022-10-11T19:18:44.937Z,13.46
2022-10-11T19:21:14.606Z,13.49
2022-10-11T19:23:44.437Z,13.36
2022-10-11T19:26:16.734Z,13.38
2022-10-11T19:28:45.721Z,13.54
2022-10-11T19:31:16.955Z,13.51
2022-10-11T19:33:48.360Z,13.66
2022-10-11T19:36:16.953Z,13.66
2022-10-11T19:38:46.706Z,13.58
2022-10-11T19:41:17.798Z,13.56
2022-10-11T19:43:46.082Z,13.55
2022-10-11T19:46:27.375Z,13.47
2022-10-11T19:49:04.096Z,13.43
2022-10-11T19:51:34.940Z,13.14
2022-10-11T19:54:04.567Z,13.06
2022-10-11T19:56:35.025Z,13.28
2022-10-11T19:59:03.658Z,13.16
2022-10-11T20:01:32.609Z,13.22
2022-10-11T20:04:02.313Z,13.20
2022-10-11T20:06:34.628Z,13.19
2022-10-11T20:09:28.005Z,13.14
2022-10-11T20:11:55.717Z,13.14
2022-10-11T20:14:23.911Z,13.20
2022-10-11T20:16:52.460Z,13.20
2022-10-11T20:19:26.250Z,13.19
2022-10-11T20:21:57.483Z,13.12
2022-10-11T20:24:27.497Z,13.07
2022-10-11T20:26:57.132Z,13.04
2022-10-11T20:29:25.339Z,13.02
2022-10-11T20:31:53.520Z,12.94
2022-10-11T20:34:21.464Z,12.86
2022-10-11T20:36:49.601Z,12.82
2022-10-11T20:39:18.001Z,12.82
2022-10-11T20:41:46.284Z,12.85
2022-10-11T20:44:16.239Z,12.75
2022-10-11T20:46:44.233Z,12.51
2022-10-11T20:49:14.672Z,12.43
2022-10-11T20:51:43.895Z,12.22
2022-10-11T20:54:12.338Z,11.94
2022-10-11T20:56:40.910Z,12.12
2022-10-11T20:59:09.309Z,12.10
2022-10-11T21:01:41.504Z,12.03
2022-10-11T21:04:15.323Z,12.31
2022-10-11T21:06:43.376Z,12.41
2022-10-11T21:09:14.070Z,12.32
2022-10-11T21:11:44.514Z,12.33
2022-10-11T21:14:12.514Z,12.37
2022-10-11T21:16:42.076Z,12.51
2022-10-11T21:19:14.087Z,12.36
2022-10-11T21:21:42.621Z,12.15
2022-10-11T21:24:10.691Z,11.59
2022-10-11T21:26:38.814Z,11.22
2022-10-11T21:29:07.589Z,11.80
2022-10-11T21:31:35.744Z,11.70
2022-10-11T21:34:07.403Z,11.40
2022-10-11T21:36:35.560Z,11.69
2022-10-11T21:39:03.937Z,11.66
2022-10-11T21:41:33.957Z,11.27
2022-10-11T21:44:02.249Z,11.59
2022-10-11T21:46:54.454Z,10.97
2022-10-11T21:49:21.531Z,10.97
2022-10-11T21:51:49.517Z,10.83
2022-10-11T21:54:17.791Z,10.87
2022-10-11T21:56:45.827Z,11.13
2022-10-11T21:59:13.931Z,10.63
2022-10-11T22:01:42.805Z,10.54
2022-10-11T22:04:12.057Z,10.28
2022-10-11T22:06:41.448Z,10.33
2022-10-11T22:09:10.020Z,10.29
2022-10-11T22:11:38.895Z,10.30
2022-10-11T22:14:07.055Z,10.24
2022-10-11T22:16:35.819Z,10.17
2022-10-11T22:19:04.196Z,10.04
2022-10-11T22:21:32.641Z,10.18
2022-10-11T22:24:02.074Z,10.17
2022-10-11T22:26:31.833Z,9.87
2022-10-11T22:29:00.273Z,9.91
2022-10-11T22:31:28.871Z,9.77
2022-10-11T22:33:57.988Z,10.00
2022-10-11T22:36:26.475Z,10.25
2022-10-11T22:38:55.178Z,10.21
2022-10-11T22:41:24.857Z,9.72
2022-10-11T22:43:53.203Z,9.90
2022-10-11T22:46:21.163Z,10.08
2022-10-11T22:48:49.123Z,10.74
2022-10-11T22:51:17.164Z,11.01
2022-10-11T22:53:45.179Z,11.24
2022-10-11T22:56:13.101Z,10.84
2022-10-11T22:58:42.434Z,10.48
2022-10-11T23:01:11.784Z,10.60
2022-10-11T23:03:40.072Z,10.90
2022-10-11T23:06:08.334Z,11.02
2022-10-11T23:08:36.257Z,11.09
2022-10-11T23:11:05.991Z,11.16
2022-10-11T23:13:34.126Z,11.06
2022-10-11T23:16:08.304Z,11.01
2022-10-11T23:18:36.695Z,11.08
2022-10-11T23:21:05.074Z,10.98
2022-10-11T23:23:33.415Z,10.96
2022-10-11T23:26:02.789Z,10.76
2022-10-11T23:28:30.980Z,10.86
2022-10-11T23:30:59.095Z,10.96
2022-10-11T23:33:29.173Z,10.92
2022-10-11T23:35:57.212Z,10.88
2022-10-11T23:38:25.187Z,10.91
2022-10-11T23:40:53.160Z,10.87
2022-10-11T23:43:21.148Z,10.96
2022-10-11T23:45:49.162Z,11.05
2022-10-11T23:48:17.251Z,11.09
2022-10-11T23:50:46.823Z,11.10
2022-10-11T23:53:14.905Z,11.11
2022-10-11T23:55:43.643Z,11.02
2022-10-11T23:58:11.684Z,11.07
